createdAt,value
2023-04-15T00:00:15.586Z,7.3859
2023-04-15T00:01:17.934Z,7.4102
2023-04-15T00:02:20.536Z,7.4046
2023-04-15T00:03:23.030Z,7.3964
2023-04-15T00:04:25.042Z,7.3708
2023-04-15T00:05:27.252Z,7.0530
2023-04-15T00:06:29.584Z,6.8151
2023-04-15T00:07:31.933Z,6.5750
2023-04-15T00:08:34.257Z,6.9030
2023-04-15T00:09:36.577Z,7.1101
2023-04-15T00:10:38.917Z,7.2898
2023-04-15T00:11:41.251Z,7.3567
2023-04-15T00:12:43.586Z,7.3344
2023-04-15T00:13:45.905Z,7.1982
2023-04-15T00:14:48.232Z,7.3272
2023-04-15T00:15:50.576Z,7.3576
2023-04-15T00:16:52.912Z,7.3586
2023-04-15T00:17:55.259Z,7.2951
2023-04-15T00:18:57.656Z,7.2912
2023-04-15T00:19:59.886Z,7.2516
2023-04-15T00:21:02.277Z,7.2187
2023-04-15T00:22:04.550Z,7.3038
2023-04-15T00:23:06.898Z,7.3722
2023-04-15T00:24:09.237Z,7.3212
2023-04-15T00:25:11.582Z,7.1072
2023-04-15T00:26:13.917Z,6.7843
2023-04-15T00:27:16.240Z,6.7087
2023-04-15T00:28:18.577Z,6.7985
2023-04-15T00:29:20.907Z,6.9704
2023-04-15T00:30:23.233Z,7.1561
2023-04-15T00:31:25.690Z,6.9291
2023-04-15T00:32:27.937Z,6.4143
2023-04-15T00:33:30.237Z,6.1220
2023-04-15T00:34:32.584Z,6.2533
2023-04-15T00:35:34.907Z,6.4464
2023-04-15T00:36:37.253Z,6.1937
2023-04-15T00:37:39.575Z,6.7695
2023-04-15T00:38:41.914Z,7.1230
2023-04-15T00:39:44.242Z,7.2280
2023-04-15T00:40:46.590Z,7.1181
2023-04-15T00:41:48.928Z,7.3305
2023-04-15T00:42:51.241Z,7.4208
2023-04-15T00:43:53.573Z,7.3693
2023-04-15T00:44:55.905Z,7.2021
2023-04-15T00:45:58.327Z,7.3886
2023-04-15T00:47:00.570Z,7.4983
2023-04-15T00:48:02.918Z,7.4404
2023-04-15T00:49:05.234Z,7.3489
2023-04-15T00:50:07.557Z,7.5324
2023-04-15T00:51:09.923Z,7.3496
2023-04-15T00:52:12.233Z,7.3962
2023-04-15T00:53:14.544Z,7.4060
2023-04-15T00:54:16.873Z,7.0164
2023-04-15T00:55:19.217Z,7.2154
2023-04-15T00:56:21.534Z,7.5071
2023-04-15T00:57:23.890Z,7.4779
2023-04-15T00:58:26.203Z,7.2288
2023-04-15T00:59:28.537Z,7.3436
2023-04-15T01:00:30.865Z,6.9392
2023-04-15T01:01:33.242Z,6.3392
2023-04-15T01:02:35.642Z,6.6255
2023-04-15T01:03:38.118Z,6.6292
2023-04-15T01:04:40.194Z,6.7419
2023-04-15T01:05:42.521Z,7.1725
2023-04-15T01:06:44.861Z,7.4243
2023-04-15T01:07:47.207Z,7.4695
2023-04-15T01:08:49.517Z,7.5841
2023-04-15T01:09:51.848Z,7.7409
2023-04-15T01:10:54.176Z,7.8680
2023-04-15T01:11:56.510Z,7.9576
2023-04-15T01:12:58.855Z,7.9405
2023-04-15T01:14:01.178Z,7.9960
2023-04-15T01:15:03.505Z,8.0816
2023-04-15T01:16:05.874Z,8.0802
2023-04-15T01:17:08.176Z,8.0502
2023-04-15T01:18:10.507Z,8.1250
2023-04-15T01:19:12.832Z,8.1461
2023-04-15T01:20:15.174Z,8.1274
2023-04-15T01:21:17.496Z,8.1720
2023-04-15T01:22:19.835Z,8.2457
2023-04-15T01:23:22.162Z,8.2581
2023-04-15T01:24:24.485Z,8.0884
2023-04-15T01:25:26.830Z,7.9346
2023-04-15T01:26:29.156Z,8.1506
2023-04-15T01:27:31.478Z,8.2595
2023-04-15T01:28:33.810Z,7.7711
2023-04-15T01:29:36.145Z,7.6096
2023-04-15T01:30:38.504Z,7.9023
2023-04-15T01:31:40.841Z,8.1354
2023-04-15T01:32:43.184Z,8.0767
2023-04-15T01:33:45.480Z,7.8440
2023-04-15T01:34:47.804Z,7.5848
2023-04-15T01:35:50.159Z,7.9925
2023-04-15T01:36:52.495Z,8.2531
2023-04-15T01:37:54.805Z,8.3957
2023-04-15T01:38:57.142Z,8.4417
2023-04-15T01:39:59.473Z,8.4752
2023-04-15T01:41:01.866Z,8.4824
2023-04-15T01:42:04.148Z,8.4768
2023-04-15T01:43:06.477Z,8.4836
2023-04-15T01:44:08.817Z,8.4388
2023-04-15T01:45:11.144Z,8.3485
2023-04-15T01:46:13.517Z,8.1396
2023-04-15T01:47:15.806Z,8.3302
2023-04-15T01:48:18.142Z,8.3519
2023-04-15T01:49:20.497Z,7.8988
2023-04-15T01:50:22.813Z,7.9042
2023-04-15T01:51:25.139Z,8.2129
2023-04-15T01:52:27.474Z,8.4842
2023-04-15T01:53:29.808Z,8.6206
2023-04-15T01:54:32.159Z,8.6972
2023-04-15T01:55:34.474Z,8.6496
2023-04-15T01:56:36.828Z,8.6395
2023-04-15T01:57:39.146Z,8.6208
2023-04-15T01:58:41.473Z,8.6578
2023-04-15T01:59:43.814Z,8.1977
2023-04-15T02:00:46.154Z,8.0808
2023-04-15T02:01:48.511Z,8.4245
2023-04-15T02:02:50.856Z,8.6395
2023-04-15T02:03:53.181Z,8.6857
2023-04-15T02:04:55.479Z,8.6997
2023-04-15T02:05:57.817Z,8.7170
2023-04-15T02:07:00.271Z,8.8679
2023-04-15T02:08:02.562Z,8.9599
2023-04-15T02:09:04.893Z,8.9768
2023-04-15T02:10:07.236Z,8.9534
2023-04-15T02:11:09.567Z,8.7521
2023-04-15T02:12:11.927Z,8.6303
2023-04-15T02:13:14.255Z,8.5861
2023-04-15T02:14:16.579Z,8.6219
2023-04-15T02:15:18.917Z,8.7457
2023-04-15T02:16:21.333Z,8.8324
2023-04-15T02:17:23.608Z,8.9374
2023-04-15T02:18:25.937Z,8.9462
2023-04-15T02:19:28.248Z,8.7543
2023-04-15T02:20:30.584Z,8.6668
2023-04-15T02:21:32.924Z,8.6937
2023-04-15T02:22:35.286Z,8.8390
2023-04-15T02:23:37.593Z,8.9291
2023-04-15T02:24:39.925Z,8.9688
2023-04-15T02:25:42.267Z,8.9786
2023-04-15T02:26:44.612Z,8.9998
2023-04-15T02:27:46.974Z,8.9456
2023-04-15T02:28:49.265Z,8.9739
2023-04-15T02:29:51.602Z,9.0084
2023-04-15T02:30:53.946Z,9.0244
2023-04-15T02:31:56.342Z,8.9669
2023-04-15T02:32:58.667Z,8.9893
2023-04-15T02:34:00.944Z,8.8901
2023-04-15T02:35:03.357Z,8.8745
2023-04-15T02:36:05.614Z,8.7428
2023-04-15T02:37:07.952Z,8.5604
2023-04-15T02:38:10.296Z,8.5027
2023-04-15T02:39:12.633Z,8.6430
2023-04-15T02:40:14.970Z,8.5206
2023-04-15T02:41:17.305Z,8.8082
2023-04-15T02:42:19.640Z,8.5393
2023-04-15T02:43:22.092Z,8.8069
2023-04-15T02:44:24.310Z,8.9546
2023-04-15T02:45:26.658Z,8.6512
2023-04-15T02:46:29.095Z,8.4175
2023-04-15T02:47:31.359Z,8.0264
2023-04-15T02:48:33.696Z,8.3684
2023-04-15T02:49:35.993Z,8.8577
2023-04-15T02:50:38.698Z,8.9924
2023-04-15T02:51:40.673Z,9.0867
2023-04-15T02:52:43.008Z,9.1547
2023-04-15T02:53:45.343Z,9.0489
2023-04-15T02:54:47.680Z,9.0511
2023-04-15T02:55:50.039Z,9.2093
2023-04-15T02:56:52.360Z,8.8414
2023-04-15T02:57:54.697Z,8.6299
2023-04-15T02:58:57.037Z,8.3084
2023-04-15T02:59:59.360Z,8.5477
2023-04-15T03:01:01.738Z,8.1077
2023-04-15T03:02:04.069Z,8.5395
2023-04-15T03:03:06.724Z,8.8231
2023-04-15T03:04:08.840Z,9.0357
2023-04-15T03:05:11.055Z,8.7079
2023-04-15T03:06:13.429Z,8.6496
2023-04-15T03:07:15.741Z,8.5818
2023-04-15T03:08:18.070Z,8.5995
2023-04-15T03:09:20.414Z,8.8733
2023-04-15T03:10:22.762Z,9.1263
2023-04-15T03:11:25.097Z,9.2948
2023-04-15T03:12:27.420Z,9.3691
2023-04-15T03:13:29.749Z,9.5104
2023-04-15T03:14:32.117Z,9.6183
2023-04-15T03:15:34.431Z,9.6620
2023-04-15T03:16:36.776Z,9.5478
2023-04-15T03:17:39.134Z,9.2054
2023-04-15T03:18:41.419Z,9.3147
2023-04-15T03:19:43.762Z,9.4993
2023-04-15T03:20:46.128Z,9.4930
2023-04-15T03:21:48.448Z,9.1113
2023-04-15T03:22:50.772Z,8.4861
2023-04-15T03:23:53.206Z,8.6576
2023-04-15T03:24:55.439Z,8.7289
2023-04-15T03:25:57.782Z,8.4616
2023-04-15T03:27:00.139Z,8.0284
2023-04-15T03:28:02.446Z,8.3189
2023-04-15T03:29:04.787Z,8.4943
2023-04-15T03:30:07.125Z,8.1354
2023-04-15T03:31:09.488Z,8.6469
2023-04-15T03:32:11.818Z,9.0019
2023-04-15T03:33:14.129Z,8.8195
2023-04-15T03:34:16.484Z,8.9152
2023-04-15T03:35:18.814Z,8.3246
2023-04-15T03:36:21.160Z,8.3466
2023-04-15T03:37:23.486Z,8.4177
2023-04-15T03:38:25.814Z,8.8591
2023-04-15T03:39:28.146Z,9.3213
2023-04-15T03:40:30.492Z,9.5273
2023-04-15T03:41:32.864Z,9.5415
2023-04-15T03:42:35.171Z,9.5731
2023-04-15T03:43:37.496Z,9.0937
2023-04-15T03:44:39.836Z,9.0544
2023-04-15T03:45:42.191Z,9.1906
2023-04-15T03:46:44.598Z,8.9694
2023-04-15T03:47:46.859Z,8.6939
2023-04-15T03:48:49.193Z,8.2749
2023-04-15T03:49:51.519Z,8.4651
2023-04-15T03:50:53.863Z,8.5327
2023-04-15T03:51:56.192Z,8.8881
2023-04-15T03:52:58.534Z,8.8593
2023-04-15T03:54:00.856Z,8.6050
2023-04-15T03:55:03.211Z,8.5557
2023-04-15T03:56:05.527Z,8.6919
2023-04-15T03:57:07.864Z,8.5828
2023-04-15T03:58:10.208Z,8.5118
2023-04-15T03:59:12.527Z,8.2449
2023-04-15T04:00:14.860Z,8.1180
2023-04-15T04:01:17.201Z,8.4735
2023-04-15T04:02:19.582Z,8.8842
2023-04-15T04:03:22.584Z,8.7018
2023-04-15T04:04:24.331Z,8.6930
2023-04-15T04:05:26.525Z,8.8770
2023-04-15T04:06:28.863Z,8.6504
2023-04-15T04:07:31.220Z,8.6900
2023-04-15T04:08:33.646Z,8.9178
2023-04-15T04:09:35.876Z,8.4844
2023-04-15T04:10:38.245Z,8.7917
2023-04-15T04:11:40.572Z,9.0458
2023-04-15T04:12:42.892Z,9.1185
2023-04-15T04:13:45.245Z,8.8034
2023-04-15T04:14:47.559Z,8.6917
2023-04-15T04:15:49.968Z,8.7825
2023-04-15T04:16:52.251Z,8.2967
2023-04-15T04:17:54.620Z,8.5471
2023-04-15T04:18:56.905Z,8.8548
2023-04-15T04:19:59.243Z,8.7202
2023-04-15T04:21:01.585Z,9.0440
2023-04-15T04:22:03.912Z,8.9394
2023-04-15T04:23:06.237Z,8.6939
2023-04-15T04:24:08.588Z,8.5691
2023-04-15T04:25:10.921Z,8.2696
2023-04-15T04:26:13.291Z,8.2414
2023-04-15T04:27:15.584Z,8.4598
2023-04-15T04:28:17.933Z,8.7504
2023-04-15T04:29:20.263Z,8.4877
2023-04-15T04:30:22.597Z,8.4549
2023-04-15T04:31:24.972Z,8.1147
2023-04-15T04:32:27.306Z,7.8861
2023-04-15T04:33:29.621Z,7.8705
2023-04-15T04:34:31.937Z,8.2197
2023-04-15T04:35:34.277Z,8.2238
2023-04-15T04:36:36.622Z,7.8725
2023-04-15T04:37:38.953Z,7.9787
2023-04-15T04:38:41.293Z,7.7168
2023-04-15T04:39:43.625Z,7.6544
2023-04-15T04:40:45.953Z,8.0403
2023-04-15T04:41:48.294Z,8.3168
2023-04-15T04:42:50.625Z,8.4263
2023-04-15T04:43:52.972Z,8.1550
2023-04-15T04:44:55.293Z,7.8464
2023-04-15T04:45:57.674Z,7.9635
2023-04-15T04:46:59.985Z,8.2534
2023-04-15T04:48:02.317Z,8.4844
2023-04-15T04:49:04.919Z,8.6108
2023-04-15T04:50:06.972Z,8.7573
2023-04-15T04:51:09.308Z,9.0111
2023-04-15T04:52:11.682Z,9.1610
2023-04-15T04:53:14.005Z,9.1925
2023-04-15T04:54:16.320Z,9.0043
2023-04-15T04:55:18.648Z,8.5791
2023-04-15T04:56:20.984Z,8.3178
2023-04-15T04:57:23.313Z,8.0036
2023-04-15T04:58:25.649Z,7.6497
2023-04-15T04:59:27.984Z,7.6182
2023-04-15T05:00:30.325Z,7.8746
2023-04-15T05:01:32.701Z,8.1574
2023-04-15T05:02:35.072Z,7.7384
2023-04-15T05:03:37.406Z,7.7920
2023-04-15T05:04:39.665Z,8.0794
2023-04-15T05:05:42.006Z,7.9422
2023-04-15T05:06:44.337Z,8.1036
2023-04-15T05:07:46.669Z,8.3207
2023-04-15T05:08:49.016Z,8.2379
2023-04-15T05:09:51.345Z,8.5052
2023-04-15T05:10:53.700Z,8.6019
2023-04-15T05:11:56.016Z,8.5699
2023-04-15T05:12:58.350Z,8.9203
2023-04-15T05:14:00.686Z,9.1387
2023-04-15T05:15:03.029Z,8.8322
2023-04-15T05:16:05.448Z,7.9839
2023-04-15T05:17:07.705Z,8.2032
2023-04-15T05:18:10.038Z,8.7073
2023-04-15T05:19:12.374Z,9.0230
2023-04-15T05:20:14.708Z,9.1674
2023-04-15T05:21:17.059Z,9.0898
2023-04-15T05:22:19.388Z,9.0551
2023-04-15T05:23:21.721Z,8.9187
2023-04-15T05:24:24.066Z,8.8490
2023-04-15T05:25:26.394Z,8.7687
2023-04-15T05:26:28.739Z,8.4717
2023-04-15T05:27:31.074Z,8.4401
2023-04-15T05:28:33.407Z,8.7229
2023-04-15T05:29:35.741Z,8.8866
2023-04-15T05:30:38.189Z,8.6658
2023-04-15T05:31:40.590Z,8.9006
2023-04-15T05:32:42.781Z,8.7983
2023-04-15T05:33:45.084Z,8.8879
2023-04-15T05:34:47.421Z,8.7981
2023-04-15T05:35:49.754Z,9.2208
2023-04-15T05:36:52.098Z,9.4209
2023-04-15T05:37:54.436Z,9.3071
2023-04-15T05:38:56.755Z,9.1719
2023-04-15T05:39:59.095Z,9.3919
2023-04-15T05:41:01.428Z,9.4944
2023-04-15T05:42:03.782Z,9.6057
2023-04-15T05:43:06.114Z,9.5131
2023-04-15T05:44:08.440Z,8.6672
2023-04-15T05:45:10.776Z,8.5804
2023-04-15T05:46:13.180Z,8.7305
2023-04-15T05:47:15.553Z,8.2798
2023-04-15T05:48:17.794Z,7.9775
2023-04-15T05:49:20.125Z,8.0853
2023-04-15T05:50:22.467Z,7.8255
2023-04-15T05:51:24.815Z,8.1268
2023-04-15T05:52:27.142Z,7.8411
2023-04-15T05:53:29.483Z,7.9882
2023-04-15T05:54:31.811Z,8.1106
2023-04-15T05:55:34.144Z,8.5093
2023-04-15T05:56:36.493Z,8.6514
2023-04-15T05:57:38.827Z,8.2911
2023-04-15T05:58:41.152Z,8.4095
2023-04-15T05:59:43.485Z,8.8281
2023-04-15T06:00:45.826Z,9.0920
2023-04-15T06:01:48.284Z,8.8963
2023-04-15T06:02:50.654Z,8.8075
2023-04-15T06:03:52.972Z,9.0501
2023-04-15T06:04:55.193Z,9.2740
2023-04-15T06:05:57.516Z,9.4492
2023-04-15T06:06:59.847Z,9.5123
2023-04-15T06:08:02.190Z,9.3763
2023-04-15T06:09:04.702Z,9.1524
2023-04-15T06:10:06.869Z,9.4205
2023-04-15T06:11:09.190Z,9.2448
2023-04-15T06:12:11.622Z,9.5018
2023-04-15T06:13:13.949Z,9.5443
2023-04-15T06:14:16.268Z,9.3755
2023-04-15T06:15:18.602Z,9.6635
2023-04-15T06:16:20.979Z,9.8637
2023-04-15T06:17:23.301Z,9.8091
2023-04-15T06:18:25.615Z,9.3449
2023-04-15T06:19:27.941Z,9.2225
2023-04-15T06:20:30.292Z,8.9809
2023-04-15T06:21:32.607Z,8.9791
2023-04-15T06:22:34.952Z,8.4690
2023-04-15T06:23:37.281Z,8.4288
2023-04-15T06:24:39.709Z,8.8776
2023-04-15T06:25:41.957Z,8.8989
2023-04-15T06:26:44.280Z,9.2771
2023-04-15T06:27:46.625Z,9.3102
2023-04-15T06:28:48.954Z,9.5250
2023-04-15T06:29:51.319Z,9.4404
2023-04-15T06:30:53.617Z,9.0368
2023-04-15T06:31:55.981Z,8.6997
2023-04-15T06:32:58.323Z,9.0627
2023-04-15T06:34:00.626Z,9.0197
2023-04-15T06:35:02.998Z,8.9150
2023-04-15T06:36:05.300Z,8.4557
2023-04-15T06:37:07.637Z,8.5549
2023-04-15T06:38:09.977Z,8.5713
2023-04-15T06:39:12.320Z,8.2649
2023-04-15T06:40:14.681Z,8.8141
2023-04-15T06:41:16.979Z,9.0610
2023-04-15T06:42:19.314Z,8.9811
2023-04-15T06:43:21.649Z,9.2882
2023-04-15T06:44:23.988Z,9.5795
2023-04-15T06:45:26.375Z,9.6963
2023-04-15T06:46:28.670Z,9.4309
2023-04-15T06:47:31.061Z,9.6440
2023-04-15T06:48:33.346Z,9.4531
2023-04-15T06:49:35.684Z,9.0620
2023-04-15T06:50:38.023Z,9.4429
2023-04-15T06:51:40.354Z,9.6760
2023-04-15T06:52:42.696Z,9.8225
2023-04-15T06:53:45.031Z,9.8592
2023-04-15T06:54:47.370Z,10.0361
2023-04-15T06:55:49.726Z,10.2735
2023-04-15T06:56:52.040Z,10.3840
2023-04-15T06:57:54.404Z,9.9977
2023-04-15T06:58:56.716Z,9.9204
2023-04-15T06:59:59.056Z,10.2659
2023-04-15T07:01:01.419Z,10.5601
2023-04-15T07:02:03.758Z,10.2971
2023-04-15T07:03:06.110Z,10.4038
2023-04-15T07:04:08.449Z,10.7162
2023-04-15T07:05:10.754Z,10.8513
2023-04-15T07:06:13.110Z,10.9526
2023-04-15T07:07:15.426Z,11.0089
2023-04-15T07:08:17.760Z,11.0276
2023-04-15T07:09:20.091Z,11.0923
2023-04-15T07:10:23.916Z,11.1436
2023-04-15T07:11:24.880Z,11.1871
2023-04-15T07:12:27.115Z,11.0986
2023-04-15T07:13:29.476Z,11.2582
2023-04-15T07:14:31.788Z,11.2597
2023-04-15T07:15:34.134Z,11.3014
2023-04-15T07:16:36.516Z,11.3803
2023-04-15T07:17:38.840Z,10.7788
2023-04-15T07:18:41.141Z,9.9907
2023-04-15T07:19:43.482Z,9.9443
2023-04-15T07:20:45.821Z,10.4072
2023-04-15T07:21:48.173Z,10.8119
2023-04-15T07:22:50.492Z,11.1623
2023-04-15T07:23:52.862Z,11.3540
2023-04-15T07:24:55.177Z,11.0066
2023-04-15T07:25:57.508Z,10.7725
2023-04-15T07:27:01.021Z,10.6893
2023-04-15T07:28:02.169Z,11.1464
2023-04-15T07:29:04.516Z,11.5103
2023-04-15T07:30:06.855Z,11.5162
2023-04-15T07:31:09.261Z,11.6218
2023-04-15T07:32:11.538Z,11.3593
2023-04-15T07:33:13.863Z,11.2482
2023-04-15T07:34:16.207Z,10.8478
2023-04-15T07:35:18.542Z,11.0083
2023-04-15T07:36:20.888Z,11.1707
2023-04-15T07:37:23.240Z,10.6819
2023-04-15T07:38:25.576Z,10.2633
2023-04-15T07:39:27.912Z,10.4483
2023-04-15T07:40:30.249Z,10.6287
2023-04-15T07:41:32.578Z,10.8238
2023-04-15T07:42:34.954Z,10.9253
2023-04-15T07:43:37.264Z,10.7162
2023-04-15T07:44:39.596Z,10.7262
2023-04-15T07:45:41.935Z,10.0581
2023-04-15T07:46:44.271Z,9.9102
2023-04-15T07:47:46.651Z,9.8430
2023-04-15T07:48:48.941Z,9.6080
2023-04-15T07:49:51.275Z,9.7820
2023-04-15T07:50:53.638Z,10.3043
2023-04-15T07:51:55.968Z,10.6182
2023-04-15T07:52:58.296Z,10.5159
2023-04-15T07:54:00.631Z,10.6057
2023-04-15T07:55:02.966Z,10.6831
2023-04-15T07:56:05.306Z,11.0074
2023-04-15T07:57:07.654Z,11.0898
2023-04-15T07:58:09.982Z,11.3675
2023-04-15T07:59:12.324Z,11.4879
2023-04-15T08:00:14.659Z,11.7046
2023-04-15T08:01:17.000Z,11.6401
2023-04-15T08:02:19.421Z,11.8640
2023-04-15T08:03:21.732Z,11.9651
2023-04-15T08:04:24.123Z,11.2876
2023-04-15T08:05:26.363Z,11.2172
2023-04-15T08:06:28.703Z,11.6656
2023-04-15T08:07:31.032Z,10.9392
2023-04-15T08:08:33.409Z,10.7176
2023-04-15T08:09:35.749Z,10.9086
2023-04-15T08:10:38.046Z,10.9204
2023-04-15T08:11:40.386Z,10.5771
2023-04-15T08:12:42.727Z,10.3803
2023-04-15T08:13:45.059Z,10.4646
2023-04-15T08:14:47.409Z,10.5465
2023-04-15T08:15:49.786Z,10.4633
2023-04-15T08:16:52.080Z,10.3222
2023-04-15T08:17:54.468Z,10.6092
2023-04-15T08:18:56.774Z,11.2151
2023-04-15T08:19:59.119Z,11.4061
2023-04-15T08:21:01.423Z,11.5099
2023-04-15T08:22:03.784Z,11.0074
2023-04-15T08:23:06.103Z,10.9196
2023-04-15T08:24:08.499Z,10.8559
2023-04-15T08:25:10.782Z,11.3443
2023-04-15T08:26:13.131Z,11.4135
2023-04-15T08:27:15.473Z,11.4893
2023-04-15T08:28:17.802Z,11.1788
2023-04-15T08:29:20.144Z,11.0348
2023-04-15T08:30:22.482Z,10.5952
2023-04-15T08:31:24.853Z,11.0641
2023-04-15T08:32:27.184Z,11.2570
2023-04-15T08:33:29.515Z,11.4279
2023-04-15T08:34:31.853Z,11.2833
2023-04-15T08:35:34.169Z,11.5456
2023-04-15T08:36:36.507Z,11.5442
2023-04-15T08:37:38.847Z,11.4273
2023-04-15T08:38:41.179Z,11.6276
2023-04-15T08:39:43.528Z,11.5056
2023-04-15T08:40:45.862Z,10.7936
2023-04-15T08:41:48.194Z,10.6751
2023-04-15T08:42:51.192Z,10.7462
2023-04-15T08:43:52.892Z,11.1190
2023-04-15T08:44:55.215Z,11.3501
2023-04-15T08:45:57.619Z,11.3229
2023-04-15T08:46:59.957Z,10.9678
2023-04-15T08:48:02.381Z,11.4026
2023-04-15T08:49:04.841Z,10.9294
2023-04-15T08:50:06.908Z,10.6929
2023-04-15T08:51:09.263Z,10.9731
2023-04-15T08:52:11.586Z,11.4536
2023-04-15T08:53:13.931Z,11.6986
2023-04-15T08:54:16.269Z,12.1505
2023-04-15T08:55:18.622Z,12.0552
2023-04-15T08:56:21.278Z,12.1392
2023-04-15T08:57:23.287Z,11.7501
2023-04-15T08:58:25.629Z,12.1109
2023-04-15T08:59:27.962Z,12.3937
2023-04-15T09:00:30.452Z,12.2483
2023-04-15T09:01:32.679Z,11.5405
2023-04-15T09:02:35.052Z,11.6824
2023-04-15T09:03:37.481Z,11.8237
2023-04-15T09:04:39.654Z,11.7806
2023-04-15T09:05:41.999Z,12.2119
2023-04-15T09:06:44.390Z,12.2847
2023-04-15T09:07:46.764Z,12.0593
2023-04-15T09:08:49.021Z,12.1277
2023-04-15T09:09:51.364Z,12.3553
2023-04-15T09:10:53.706Z,12.7647
2023-04-15T09:11:56.539Z,12.8395
2023-04-15T09:12:58.389Z,12.0333
2023-04-15T09:14:00.745Z,12.1518
2023-04-15T09:15:03.077Z,12.5342
2023-04-15T09:16:05.434Z,12.6049
2023-04-15T09:17:07.796Z,12.7538
2023-04-15T09:18:10.124Z,12.9853
2023-04-15T09:19:12.420Z,12.2370
2023-04-15T09:20:14.792Z,12.2257
2023-04-15T09:21:17.108Z,12.5819
2023-04-15T09:22:19.466Z,12.8501
2023-04-15T09:23:21.795Z,12.7189
2023-04-15T09:24:24.139Z,12.5661
2023-04-15T09:25:26.478Z,12.6519
2023-04-15T09:26:28.819Z,12.6618
2023-04-15T09:27:31.200Z,12.4584
2023-04-15T09:28:33.501Z,12.7207
2023-04-15T09:29:35.849Z,12.6084
2023-04-15T09:30:38.278Z,12.8273
2023-04-15T09:31:40.550Z,12.9492
2023-04-15T09:32:43.002Z,13.1574
2023-04-15T09:33:45.216Z,13.0977
2023-04-15T09:34:47.551Z,13.1862
2023-04-15T09:35:49.885Z,12.9713
2023-04-15T09:36:52.235Z,12.9919
2023-04-15T09:37:54.573Z,12.8495
2023-04-15T09:38:56.910Z,12.6743
2023-04-15T09:39:59.271Z,12.9991
2023-04-15T09:41:01.599Z,13.1439
2023-04-15T09:42:03.937Z,13.3074
2023-04-15T09:43:06.294Z,13.2417
2023-04-15T09:44:08.622Z,13.4202
2023-04-15T09:45:10.975Z,13.5479
2023-04-15T09:46:13.309Z,13.5216
2023-04-15T09:47:15.655Z,13.4998
2023-04-15T09:48:18.002Z,13.5114
2023-04-15T09:49:20.384Z,13.6233
2023-04-15T09:50:22.681Z,13.6650
2023-04-15T09:51:25.030Z,13.6280
2023-04-15T09:52:27.419Z,13.6944
2023-04-15T09:53:31.249Z,13.7531
2023-04-15T09:54:32.059Z,13.7775
2023-04-15T09:55:34.408Z,13.6755
2023-04-15T09:56:36.747Z,13.6192
2023-04-15T09:57:39.103Z,13.2527
2023-04-15T09:58:41.448Z,12.8750
2023-04-15T09:59:43.775Z,12.6497
2023-04-15T10:00:46.115Z,12.5821
2023-04-15T10:01:48.588Z,12.6645
2023-04-15T10:02:50.920Z,12.8226
2023-04-15T10:03:53.299Z,12.6829
2023-04-15T10:04:55.479Z,12.7279
2023-04-15T10:05:57.821Z,12.6992
2023-04-15T10:07:00.166Z,12.2551
2023-04-15T10:08:02.520Z,12.2756
2023-04-15T10:09:04.862Z,11.9807
2023-04-15T10:10:07.210Z,11.8589
2023-04-15T10:11:09.538Z,11.6261
2023-04-15T10:12:11.866Z,11.7687
2023-04-15T10:13:14.206Z,12.0889
2023-04-15T10:14:16.557Z,12.2906
2023-04-15T10:15:18.887Z,12.2748
2023-04-15T10:16:21.301Z,12.2717
2023-04-15T10:17:23.620Z,12.4697
2023-04-15T10:18:25.979Z,12.5457
2023-04-15T10:19:28.329Z,12.6515
2023-04-15T10:20:30.657Z,12.5848
2023-04-15T10:21:32.987Z,12.1232
2023-04-15T10:22:35.331Z,11.7787
2023-04-15T10:23:37.667Z,11.6263
2023-04-15T10:24:40.019Z,11.8658
2023-04-15T10:25:42.338Z,11.7539
2023-04-15T10:26:44.686Z,11.6233
2023-04-15T10:27:47.022Z,11.6524
2023-04-15T10:28:49.378Z,11.5600
2023-04-15T10:29:51.704Z,11.8710
2023-04-15T10:30:54.062Z,11.8905
2023-04-15T10:31:56.393Z,11.8130
2023-04-15T10:32:58.778Z,11.9186
2023-04-15T10:34:01.390Z,12.0832
2023-04-15T10:35:03.423Z,12.0614
2023-04-15T10:36:05.744Z,11.7744
2023-04-15T10:37:08.071Z,11.1371
2023-04-15T10:38:10.412Z,10.7706
2023-04-15T10:39:12.751Z,10.8836
2023-04-15T10:40:15.109Z,11.1299
2023-04-15T10:41:19.530Z,11.2443
2023-04-15T10:42:19.801Z,11.3769
2023-04-15T10:43:22.110Z,11.5606
2023-04-15T10:44:24.452Z,11.3848
2023-04-15T10:45:26.801Z,10.9641
2023-04-15T10:46:29.188Z,10.3452
2023-04-15T10:47:31.471Z,10.4911
2023-04-15T10:48:33.796Z,10.5120
2023-04-15T10:49:36.146Z,10.7745
2023-04-15T10:50:38.477Z,10.6652
2023-04-15T10:51:40.809Z,10.9296
2023-04-15T10:52:43.152Z,11.0058
2023-04-15T10:53:45.473Z,10.6780
2023-04-15T10:54:47.817Z,10.6548
2023-04-15T10:55:50.174Z,10.4789
2023-04-15T10:56:52.503Z,10.1538
2023-04-15T10:57:54.828Z,10.2522
2023-04-15T10:58:57.163Z,10.2000
2023-04-15T10:59:59.509Z,10.3684
2023-04-15T11:01:01.934Z,10.5169
2023-04-15T11:02:04.332Z,10.4752
2023-04-15T11:03:06.738Z,10.2433
2023-04-15T11:04:09.021Z,10.2456
2023-04-15T11:05:11.181Z,10.4699
2023-04-15T11:06:13.533Z,10.4789
2023-04-15T11:07:15.856Z,10.3218
2023-04-15T11:08:18.194Z,10.2138
2023-04-15T11:09:20.541Z,10.2101
2023-04-15T11:10:22.873Z,10.1780
2023-04-15T11:11:25.345Z,10.2174
2023-04-15T11:12:27.546Z,10.1926
2023-04-15T11:13:29.882Z,9.9430
2023-04-15T11:14:32.214Z,10.3625
2023-04-15T11:15:34.558Z,10.5262
2023-04-15T11:16:36.928Z,10.7049
2023-04-15T11:17:39.256Z,10.7507
2023-04-15T11:18:41.560Z,10.6671
2023-04-15T11:19:43.893Z,10.8335
2023-04-15T11:20:46.228Z,10.6548
2023-04-15T11:21:48.573Z,10.7006
2023-04-15T11:22:50.928Z,10.5003
2023-04-15T11:23:53.242Z,10.6722
2023-04-15T11:24:55.568Z,10.8774
2023-04-15T11:25:57.928Z,10.8528
2023-04-15T11:27:00.239Z,10.4748
2023-04-15T11:28:02.570Z,10.5161
2023-04-15T11:29:05.147Z,10.6065
2023-04-15T11:30:07.241Z,10.3001
2023-04-15T11:31:09.589Z,10.1258
2023-04-15T11:32:12.103Z,10.3395
2023-04-15T11:33:14.261Z,10.3643
2023-04-15T11:34:16.587Z,10.6176
2023-04-15T11:35:18.929Z,10.7195
2023-04-15T11:36:21.268Z,10.9296
2023-04-15T11:37:23.617Z,10.7414
2023-04-15T11:38:25.960Z,10.5728
2023-04-15T11:39:28.276Z,10.6367
2023-04-15T11:40:30.608Z,10.7809
2023-04-15T11:41:32.960Z,10.7944
2023-04-15T11:42:48.757Z,10.8078
2023-04-15T11:43:37.648Z,10.7423
2023-04-15T11:44:39.967Z,10.8349
2023-04-15T11:45:42.336Z,10.7390
2023-04-15T11:46:45.664Z,10.7094
2023-04-15T11:47:47.025Z,10.8969
2023-04-15T11:48:49.318Z,11.0658
2023-04-15T11:49:51.638Z,11.2991
2023-04-15T11:50:53.990Z,11.1701
2023-04-15T11:51:56.331Z,11.2794
2023-04-15T11:52:58.656Z,10.9356
2023-04-15T11:54:01.113Z,10.5114
2023-04-15T11:55:03.344Z,10.7248
2023-04-15T11:56:05.683Z,10.5112
2023-04-15T11:57:08.005Z,10.5870
2023-04-15T11:58:10.356Z,10.6642
2023-04-15T11:59:12.681Z,10.4118
2023-04-15T12:00:15.016Z,10.5833
2023-04-15T12:01:17.372Z,10.7102
2023-04-15T12:02:19.808Z,10.6679
2023-04-15T12:03:22.174Z,10.3822
2023-04-15T12:04:25.872Z,10.4661
2023-04-15T12:05:26.705Z,10.3132
2023-04-15T12:06:29.053Z,10.0102
2023-04-15T12:07:32.166Z,10.1515
2023-04-15T12:08:33.725Z,10.1421
2023-04-15T12:09:36.067Z,10.3308
2023-04-15T12:10:38.396Z,10.4463
2023-04-15T12:11:40.751Z,10.4068
2023-04-15T12:12:43.078Z,10.4077
2023-04-15T12:13:45.412Z,10.5925
2023-04-15T12:14:47.771Z,10.3454
2023-04-15T12:15:50.122Z,10.5720
2023-04-15T12:16:52.585Z,10.6607
2023-04-15T12:17:54.820Z,10.7657
2023-04-15T12:18:57.118Z,10.8704
2023-04-15T12:19:59.507Z,11.1007
2023-04-15T12:21:01.821Z,11.0368
2023-04-15T12:22:04.142Z,10.5069
2023-04-15T12:23:06.485Z,10.3031
2023-04-15T12:24:08.833Z,10.3916
2023-04-15T12:25:11.158Z,10.6322
2023-04-15T12:26:13.491Z,10.3584
2023-04-15T12:27:15.864Z,10.2965
2023-04-15T12:28:18.180Z,10.3931
2023-04-15T12:29:20.499Z,10.2505
2023-04-15T12:30:22.831Z,10.4035
2023-04-15T12:31:25.231Z,10.7322
2023-04-15T12:32:27.549Z,10.8842
2023-04-15T12:33:29.844Z,10.9918
2023-04-15T12:34:32.184Z,11.1516
2023-04-15T12:35:34.533Z,11.4152
2023-04-15T12:36:36.853Z,11.6220
2023-04-15T12:37:39.225Z,11.5916
2023-04-15T12:38:41.546Z,11.4501
2023-04-15T12:39:43.884Z,11.5992
2023-04-15T12:40:46.224Z,11.8434
2023-04-15T12:41:48.567Z,11.8589
2023-04-15T12:42:50.910Z,11.9332
2023-04-15T12:43:53.286Z,12.1095
2023-04-15T12:44:55.591Z,12.2140
2023-04-15T12:45:57.938Z,12.3761
2023-04-15T12:47:00.534Z,12.2691